Marine Rouge — JG5115 — position and weather

sailwx.info

Track history (hours):
 
Tides and Currents Weather Stations Pressure Air Temp Water Temp Dewpoint Dewpoint Depression Visibility Wind Speed Wind Dir Waves Ship Positions

Marine Rouge

Last reported at 2015-Apr-21 04:33 UTC. Time now 2015-Apr-21 05:04 UTC.
Position N 35°27' E 139°39'.

Length 52 m; draft 2.8 m.

Type: Passenger vessel. MMSI: 431000518.

Date/timePositionNaut miles runAvg speedWind from/ knotsBaromVisibWave heightAir tempDewpointWater temp
2015-Apr-21 04:33N 35°27' E 139°39'1 0.6
2015-Apr-21 03:33N 35°27' E 139°39'1 0.6
2015-Apr-21 02:33N 35°27' E 139°39'0 0.0
2015-Apr-21 01:33N 35°27' E 139°39'0 0.0
2015-Apr-21 00:33N 35°27' E 139°39'0 0.0
2015-Apr-20 08:33N 35°27' E 139°39'1 0.8
2015-Apr-20 07:33N 35°28' E 139°39'1 0.8
2015-Apr-20 06:33N 35°27' E 139°39'0 0.1
2015-Apr-20 05:34N 35°27' E 139°39'0 0.1
2015-Apr-20 04:33N 35°27' E 139°39'2 2.1
2015-Apr-20 03:33N 35°27' E 139°42'2 2.1
2015-Apr-20 02:33N 35°27' E 139°39'0 0.0
2015-Apr-20 01:33N 35°27' E 139°39'0 0.0
2015-Apr-19 12:30N 35°27' E 139°39'1 0.8
2015-Apr-19 11:33N 35°28' E 139°39'0 0.2
2015-Apr-19 10:33N 35°27' E 139°39'1 0.7
2015-Apr-19 09:33N 35°27' E 139°39'0 0.1
2015-Apr-19 08:33N 35°27' E 139°39'0 0.4
2015-Apr-19 07:34N 35°27' E 139°39'1 0.5
2015-Apr-19 06:33N 35°27' E 139°39'0 0.1
2015-Apr-19 05:33N 35°27' E 139°39'0 0.1
2015-Apr-19 04:33N 35°27' E 139°39'1 0.5
2015-Apr-19 03:33N 35°27' E 139°39'1 0.5
2015-Apr-19 02:33N 35°27' E 139°39'0 0.0
2015-Apr-19 01:33N 35°27' E 139°39'0 0.0
2015-Apr-19 00:33N 35°27' E 139°39'0 0.0
2015-Apr-18 12:33N 35°27' E 139°39'1 0.9
2015-Apr-18 11:34N 35°28' E 139°39'1 0.6
2015-Apr-18 10:34N 35°27' E 139°39'1 0.5
2015-Apr-18 09:34N 35°27' E 139°39'0 0.0
2015-Apr-18 08:34N 35°27' E 139°39'1 1.1
2015-Apr-18 07:33N 35°27' E 139°40'1 1.1
2015-Apr-18 06:33N 35°27' E 139°39'0 0.0
2015-Apr-18 05:33N 35°27' E 139°39'0 0.0
2015-Apr-18 04:34N 35°27' E 139°39'1 0.5
2015-Apr-18 03:33N 35°27' E 139°39'1 0.5
2015-Apr-18 02:33N 35°27' E 139°39'0 0.0
2015-Apr-18 01:33N 35°27' E 139°39'0 0.0
2015-Apr-18 00:33N 35°27' E 139°39'0 0.0
2015-Apr-17 11:33N 35°27' E 139°39'1 1.2
2015-Apr-17 10:34N 35°28' E 139°39'1 1.4
2015-Apr-17 09:33N 35°27' E 139°40'1 1.1
2015-Apr-17 08:33N 35°27' E 139°39'0 0.0
2015-Apr-17 07:33N 35°27' E 139°39'0 0.0
2015-Apr-17 06:34N 35°27' E 139°39'0 0.1
2015-Apr-17 05:33N 35°27' E 139°39'0 0.1
2015-Apr-17 04:33N 35°27' E 139°39'1 0.5
2015-Apr-17 03:34N 35°27' E 139°39'1 0.5
2015-Apr-17 02:33N 35°27' E 139°39'0 0.0
2015-Apr-17 01:33N 35°27' E 139°39'0 0.0
2015-Apr-17 00:33N 35°27' E 139°39'2 0.2
2015-Apr-16 11:33N 35°28' E 139°41'1 1.5
2015-Apr-16 10:33N 35°28' E 139°39'1 0.8
2015-Apr-16 09:33N 35°27' E 139°39'1 1.3
2015-Apr-16 08:32N 35°28' E 139°40'1 0.7
2015-Apr-16 07:33N 35°27' E 139°39'1 0.7
2015-Apr-16 06:32N 35°27' E 139°39'0 0.1
2015-Apr-16 05:34N 35°27' E 139°39'0 0.1
2015-Apr-16 04:32N 35°27' E 139°39'1 0.5
2015-Apr-16 03:33N 35°27' E 139°39'1 0.5
2015-Apr-16 02:33N 35°27' E 139°39'0 0.0
2015-Apr-16 01:32N 35°27' E 139°39'0 0.0
2015-Apr-16 00:33N 35°27' E 139°39'1 0.1
2015-Apr-15 11:33N 35°28' E 139°39'1 1.3
2015-Apr-15 10:33N 35°27' E 139°40'1 1.1
2015-Apr-15 09:33N 35°27' E 139°39'0 0.0
2015-Apr-15 08:33N 35°27' E 139°39'1 1.2
2015-Apr-15 07:33N 35°27' E 139°40'1 1.2
2015-Apr-15 06:33N 35°27' E 139°39'0 0.0
2015-Apr-15 05:33N 35°27' E 139°39'0 0.0
2015-Apr-15 04:33N 35°27' E 139°39'3 2.8
2015-Apr-15 03:33N 35°28' E 139°42'3 2.8
2015-Apr-15 02:33N 35°27' E 139°39'0 0.0
2015-Apr-15 01:33N 35°27' E 139°39'0 0.0
2015-Apr-15 00:33N 35°27' E 139°39'1 0.0
2015-Apr-14 12:33N 35°27' E 139°39'1 0.7
2015-Apr-14 11:33N 35°28' E 139°39'1 0.6
2015-Apr-14 10:34N 35°27' E 139°39'1 0.5
2015-Apr-14 09:33N 35°27' E 139°39'0 0.0
2015-Apr-14 08:33N 35°27' E 139°39'0 0.0
2015-Apr-14 07:33N 35°27' E 139°39'0 0.0
2015-Apr-14 06:33N 35°27' E 139°39'0 0.1
2015-Apr-14 05:34N 35°27' E 139°39'0 0.1
2015-Apr-14 04:33N 35°27' E 139°39'1 0.5
2015-Apr-14 03:34N 35°27' E 139°39'1 0.5
2015-Apr-14 02:33N 35°27' E 139°39'0 0.0
2015-Apr-14 01:33N 35°27' E 139°39'1 0.1
2015-Apr-13 11:34N 35°28' E 139°39'2 1.7
2015-Apr-13 10:34N 35°27' E 139°41'1 1.4
2015-Apr-13 09:34N 35°27' E 139°39'0 0.0
2015-Apr-13 08:33N 35°27' E 139°39'3 2.8
2015-Apr-13 07:34N 35°28' E 139°42'3 2.8
2015-Apr-13 06:33N 35°27' E 139°39'0 0.0
2015-Apr-13 05:34N 35°27' E 139°39'0 0.4
2015-Apr-13 04:33N 35°27' E 139°39'0 0.5
2015-Apr-13 03:34N 35°28' E 139°39'1 0.8
2015-Apr-13 02:34N 35°27' E 139°39'0 0.0
2015-Apr-13 01:34N 35°27' E 139°39'0 0.0
2015-Apr-13 00:34N 35°27' E 139°39'0 0.0
2015-Apr-12 12:27N 35°27' E 139°39'1 1.5
2015-Apr-12 11:33N 35°28' E 139°40'1 1.1
2015-Apr-12 10:33N 35°27' E 139°39'1 0.6
2015-Apr-12 09:33N 35°27' E 139°39'0 0.0
2015-Apr-12 08:33N 35°27' E 139°39'0 0.5
2015-Apr-12 07:33N 35°27' E 139°39'1 0.5
2015-Apr-12 06:33N 35°27' E 139°39'0 0.0
2015-Apr-12 05:33N 35°27' E 139°39'0 0.1
2015-Apr-12 04:33N 35°27' E 139°39'1 0.5
2015-Apr-12 03:33N 35°27' E 139°39'1 0.5
2015-Apr-12 02:33N 35°27' E 139°39'0 0.0
2015-Apr-12 01:33N 35°27' E 139°39'0 0.0
2015-Apr-12 00:33N 35°27' E 139°39'0 0.0
2015-Apr-11 12:33N 35°27' E 139°39'1 0.8
2015-Apr-11 11:33N 35°28' E 139°39'0 0.2
2015-Apr-11 10:34N 35°27' E 139°39'1 0.7
2015-Apr-11 09:33N 35°27' E 139°39'0 0.0
2015-Apr-11 08:34N 35°27' E 139°39'1 0.5
2015-Apr-11 07:33N 35°27' E 139°39'1 0.5
2015-Apr-11 06:33N 35°27' E 139°39'0 0.1
2015-Apr-11 05:34N 35°27' E 139°39'1 1.2
2015-Apr-11 04:33N 35°28' E 139°40'  
Track history (hours):
 
Tides and Currents Weather Stations Pressure Air Temp Water Temp Dewpoint Dewpoint Depression Visibility Wind Speed Wind Dir Waves Ship Positions

Marine Rouge

Last reported at 2015-Apr-21 04:33 UTC. Time now 2015-Apr-21 05:04 UTC.
Position N 35°27' E 139°39'.

Length 52 m; draft 2.8 m.

Type: Passenger vessel. MMSI: 431000518.

Date/timePositionNaut miles runAvg speedWind from/ knotsBaromVisibWave heightAir tempDewpointWater temp
2015-Apr-21 04:33N 35°27' E 139°39'1 0.6
2015-Apr-21 03:33N 35°27' E 139°39'1 0.6
2015-Apr-21 02:33N 35°27' E 139°39'0 0.0
2015-Apr-21 01:33N 35°27' E 139°39'0 0.0
2015-Apr-21 00:33N 35°27' E 139°39'0 0.0
2015-Apr-20 08:33N 35°27' E 139°39'1 0.8
2015-Apr-20 07:33N 35°28' E 139°39'1 0.8
2015-Apr-20 06:33N 35°27' E 139°39'0 0.1
2015-Apr-20 05:34N 35°27' E 139°39'0 0.1
2015-Apr-20 04:33N 35°27' E 139°39'2 2.1
2015-Apr-20 03:33N 35°27' E 139°42'2 2.1
2015-Apr-20 02:33N 35°27' E 139°39'0 0.0
2015-Apr-20 01:33N 35°27' E 139°39'0 0.0
2015-Apr-19 12:30N 35°27' E 139°39'1 0.8
2015-Apr-19 11:33N 35°28' E 139°39'0 0.2
2015-Apr-19 10:33N 35°27' E 139°39'1 0.7
2015-Apr-19 09:33N 35°27' E 139°39'0 0.1
2015-Apr-19 08:33N 35°27' E 139°39'0 0.4
2015-Apr-19 07:34N 35°27' E 139°39'1 0.5
2015-Apr-19 06:33N 35°27' E 139°39'0 0.1
2015-Apr-19 05:33N 35°27' E 139°39'0 0.1
2015-Apr-19 04:33N 35°27' E 139°39'1 0.5
2015-Apr-19 03:33N 35°27' E 139°39'1 0.5
2015-Apr-19 02:33N 35°27' E 139°39'0 0.0
2015-Apr-19 01:33N 35°27' E 139°39'0 0.0
2015-Apr-19 00:33N 35°27' E 139°39'0 0.0
2015-Apr-18 12:33N 35°27' E 139°39'1 0.9
2015-Apr-18 11:34N 35°28' E 139°39'1 0.6
2015-Apr-18 10:34N 35°27' E 139°39'1 0.5
2015-Apr-18 09:34N 35°27' E 139°39'0 0.0
2015-Apr-18 08:34N 35°27' E 139°39'1 1.1
2015-Apr-18 07:33N 35°27' E 139°40'1 1.1
2015-Apr-18 06:33N 35°27' E 139°39'0 0.0
2015-Apr-18 05:33N 35°27' E 139°39'0 0.0
2015-Apr-18 04:34N 35°27' E 139°39'1 0.5
2015-Apr-18 03:33N 35°27' E 139°39'1 0.5
2015-Apr-18 02:33N 35°27' E 139°39'0 0.0
2015-Apr-18 01:33N 35°27' E 139°39'0 0.0
2015-Apr-18 00:33N 35°27' E 139°39'0 0.0
2015-Apr-17 11:33N 35°27' E 139°39'1 1.2
2015-Apr-17 10:34N 35°28' E 139°39'1 1.4
2015-Apr-17 09:33N 35°27' E 139°40'1 1.1
2015-Apr-17 08:33N 35°27' E 139°39'0 0.0
2015-Apr-17 07:33N 35°27' E 139°39'0 0.0
2015-Apr-17 06:34N 35°27' E 139°39'0 0.1
2015-Apr-17 05:33N 35°27' E 139°39'0 0.1
2015-Apr-17 04:33N 35°27' E 139°39'1 0.5
2015-Apr-17 03:34N 35°27' E 139°39'1 0.5
2015-Apr-17 02:33N 35°27' E 139°39'0 0.0
2015-Apr-17 01:33N 35°27' E 139°39'0 0.0
2015-Apr-17 00:33N 35°27' E 139°39'2 0.2
2015-Apr-16 11:33N 35°28' E 139°41'1 1.5
2015-Apr-16 10:33N 35°28' E 139°39'1 0.8
2015-Apr-16 09:33N 35°27' E 139°39'1 1.3
2015-Apr-16 08:32N 35°28' E 139°40'1 0.7
2015-Apr-16 07:33N 35°27' E 139°39'1 0.7
2015-Apr-16 06:32N 35°27' E 139°39'0 0.1
2015-Apr-16 05:34N 35°27' E 139°39'0 0.1
2015-Apr-16 04:32N 35°27' E 139°39'1 0.5
2015-Apr-16 03:33N 35°27' E 139°39'1 0.5
2015-Apr-16 02:33N 35°27' E 139°39'0 0.0
2015-Apr-16 01:32N 35°27' E 139°39'0 0.0
2015-Apr-16 00:33N 35°27' E 139°39'1 0.1
2015-Apr-15 11:33N 35°28' E 139°39'1 1.3
2015-Apr-15 10:33N 35°27' E 139°40'1 1.1
2015-Apr-15 09:33N 35°27' E 139°39'0 0.0
2015-Apr-15 08:33N 35°27' E 139°39'1 1.2
2015-Apr-15 07:33N 35°27' E 139°40'1 1.2
2015-Apr-15 06:33N 35°27' E 139°39'0 0.0
2015-Apr-15 05:33N 35°27' E 139°39'0 0.0
2015-Apr-15 04:33N 35°27' E 139°39'3 2.8
2015-Apr-15 03:33N 35°28' E 139°42'3 2.8
2015-Apr-15 02:33N 35°27' E 139°39'0 0.0
2015-Apr-15 01:33N 35°27' E 139°39'0 0.0
2015-Apr-15 00:33N 35°27' E 139°39'1 0.0
2015-Apr-14 12:33N 35°27' E 139°39'1 0.7
2015-Apr-14 11:33N 35°28' E 139°39'1 0.6
2015-Apr-14 10:34N 35°27' E 139°39'1 0.5
2015-Apr-14 09:33N 35°27' E 139°39'0 0.0
2015-Apr-14 08:33N 35°27' E 139°39'0 0.0
2015-Apr-14 07:33N 35°27' E 139°39'0 0.0
2015-Apr-14 06:33N 35°27' E 139°39'0 0.1
2015-Apr-14 05:34N 35°27' E 139°39'0 0.1
2015-Apr-14 04:33N 35°27' E 139°39'1 0.5
2015-Apr-14 03:34N 35°27' E 139°39'1 0.5
2015-Apr-14 02:33N 35°27' E 139°39'0 0.0
2015-Apr-14 01:33N 35°27' E 139°39'1 0.1
2015-Apr-13 11:34N 35°28' E 139°39'2 1.7
2015-Apr-13 10:34N 35°27' E 139°41'1 1.4
2015-Apr-13 09:34N 35°27' E 139°39'0 0.0
2015-Apr-13 08:33N 35°27' E 139°39'3 2.8
2015-Apr-13 07:34N 35°28' E 139°42'3 2.8
2015-Apr-13 06:33N 35°27' E 139°39'0 0.0
2015-Apr-13 05:34N 35°27' E 139°39'0 0.4
2015-Apr-13 04:33N 35°27' E 139°39'0 0.5
2015-Apr-13 03:34N 35°28' E 139°39'1 0.8
2015-Apr-13 02:34N 35°27' E 139°39'0 0.0
2015-Apr-13 01:34N 35°27' E 139°39'0 0.0
2015-Apr-13 00:34N 35°27' E 139°39'0 0.0
2015-Apr-12 12:27N 35°27' E 139°39'1 1.5
2015-Apr-12 11:33N 35°28' E 139°40'1 1.1
2015-Apr-12 10:33N 35°27' E 139°39'1 0.6
2015-Apr-12 09:33N 35°27' E 139°39'0 0.0
2015-Apr-12 08:33N 35°27' E 139°39'0 0.5
2015-Apr-12 07:33N 35°27' E 139°39'1 0.5
2015-Apr-12 06:33N 35°27' E 139°39'0 0.0
2015-Apr-12 05:33N 35°27' E 139°39'0 0.1
2015-Apr-12 04:33N 35°27' E 139°39'1 0.5
2015-Apr-12 03:33N 35°27' E 139°39'1 0.5
2015-Apr-12 02:33N 35°27' E 139°39'0 0.0
2015-Apr-12 01:33N 35°27' E 139°39'0 0.0
2015-Apr-12 00:33N 35°27' E 139°39'0 0.0
2015-Apr-11 12:33N 35°27' E 139°39'1 0.8
2015-Apr-11 11:33N 35°28' E 139°39'0 0.2
2015-Apr-11 10:34N 35°27' E 139°39'1 0.7
2015-Apr-11 09:33N 35°27' E 139°39'0 0.0
2015-Apr-11 08:34N 35°27' E 139°39'1 0.5
2015-Apr-11 07:33N 35°27' E 139°39'1 0.5
2015-Apr-11 06:33N 35°27' E 139°39'0 0.1
2015-Apr-11 05:34N 35°27' E 139°39'1 1.2
2015-Apr-11 04:33N 35°28' E 139°40'  

Dump ship's entire track history